Time;durP1;ratioP1;P1;durP2;ratioP2;P2;SDS_P1;SDS_P2;PMS_P1;PMS_P2;Temp;Humidity;BMP_temperature;BMP_pressure;BME280_temperature;BME280_humidity;BME280_pressure;Samples;Min_cycle;Max_cycle;Signal;HPM_P1;HPM_P2
2021/12/01 00:00:28;;;;;;;0.88;0.68;;;;;;;;;;5031686;28;20057;-64
2021/12/01 00:02:56;;;;;;;1.02;0.82;;;;;;;;;;5031393;28;20085;-64
2021/12/01 00:05:25;;;;;;;0.80;0.70;;;;;;;;;;5031739;28;20099;-64
2021/12/01 00:07:52;;;;;;;0.90;0.80;;;;;;;;;;5031246;28;20049;-64
2021/12/01 00:10:20;;;;;;;0.70;0.60;;;;;;;;;;5031576;28;20054;-64
2021/12/01 00:12:47;;;;;;;1.00;0.65;;;;;;;;;;5031293;28;20049;-64
2021/12/01 00:15:14;;;;;;;1.23;0.90;;;;;;;;;;5031430;28;20516;-64
2021/12/01 00:17:41;;;;;;;0.90;0.90;;;;;;;;;;5031347;28;20053;-64
2021/12/01 00:20:14;;;;;;;0.88;0.85;;;;;;;;;;5031510;28;20076;-64
2021/12/01 00:22:41;;;;;;;1.38;0.80;;;;;;;;;;5031229;28;20279;-64
2021/12/01 00:25:09;;;;;;;0.85;0.73;;;;;;;;;;5031437;28;20045;-64
2021/12/01 00:27:37;;;;;;;0.82;0.73;;;;;;;;;;5031272;28;20053;-64
2021/12/01 00:30:05;;;;;;;1.45;0.90;;;;;;;;;;5031452;28;20470;-64
2021/12/01 00:32:31;;;;;;;2.72;1.15;;;;;;;;;;5031340;28;20045;-64
2021/12/01 00:34:59;;;;;;;0.80;0.80;;;;;;;;;;5030024;28;20057;-64
2021/12/01 00:37:25;;;;;;;0.77;0.77;;;;;;;;;;5030022;28;20096;-64
2021/12/01 00:39:52;;;;;;;0.75;0.65;;;;;;;;;;5030984;28;20566;-64
2021/12/01 00:42:19;;;;;;;0.95;0.70;;;;;;;;;;5031498;28;20050;-64
2021/12/01 00:44:47;;;;;;;1.88;1.05;;;;;;;;;;5030842;28;20104;-64
2021/12/01 00:47:14;;;;;;;0.82;0.82;;;;;;;;;;5031344;28;20050;-64
2021/12/01 00:49:41;;;;;;;2.95;1.23;;;;;;;;;;5031035;28;20111;-64
2021/12/01 00:52:08;;;;;;;4.18;1.05;;;;;;;;;;5034605;28;20491;-64
2021/12/01 00:54:35;;;;;;;2.00;0.93;;;;;;;;;;5034675;28;20053;-64
2021/12/01 00:57:01;;;;;;;0.80;0.80;;;;;;;;;;5034803;28;20045;-64
2021/12/01 00:59:28;;;;;;;0.88;0.70;;;;;;;;;;5034725;28;20107;-64
2021/12/01 01:01:55;;;;;;;0.70;0.63;;;;;;;;;;5034680;28;20049;-64
2021/12/01 01:04:21;;;;;;;0.90;0.60;;;;;;;;;;5034646;28;20055;-64
2021/12/01 01:06:48;;;;;;;1.13;1.00;;;;;;;;;;5034427;28;20100;-65
2021/12/01 01:09:15;;;;;;;1.40;0.68;;;;;;;;;;5034557;28;20049;-64
2021/12/01 01:17:22;;;;;;;1.90;0.55;;;;;;;;;;5034445;28;20072;-64
2021/12/01 01:19:49;;;;;;;1.00;0.40;;;;;;;;;;5034288;28;20053;-64
2021/12/01 01:22:16;;;;;;;0.40;0.40;;;;;;;;;;5034302;28;20463;-64
2021/12/01 01:24:42;;;;;;;1.95;0.40;;;;;;;;;;5033879;28;20111;-64
2021/12/01 01:27:09;;;;;;;1.27;1.15;;;;;;;;;;5034139;28;20088;-64
2021/12/01 01:29:36;;;;;;;1.33;0.50;;;;;;;;;;5034208;28;20049;-64
2021/12/01 01:32:03;;;;;;;0.75;0.70;;;;;;;;;;5034116;28;20053;-64
2021/12/01 01:34:31;;;;;;;0.60;0.60;;;;;;;;;;5033862;28;20049;-64
2021/12/01 01:36:57;;;;;;;0.88;0.60;;;;;;;;;;5033923;28;20045;-64
2021/12/01 01:39:24;;;;;;;1.45;0.80;;;;;;;;;;5034181;28;20046;-64
2021/12/01 01:41:52;;;;;;;0.70;0.55;;;;;;;;;;5033985;28;20053;-64
2021/12/01 01:44:19;;;;;;;0.77;0.70;;;;;;;;;;5033598;28;20053;-64
2021/12/01 01:46:45;;;;;;;2.25;0.70;;;;;;;;;;5033966;28;20547;-64
2021/12/01 01:49:19;;;;;;;1.55;0.85;;;;;;;;;;5033763;28;20056;-64
2021/12/01 01:51:47;;;;;;;1.35;0.70;;;;;;;;;;5033840;28;20092;-64
2021/12/01 01:54:14;;;;;;;1.45;0.70;;;;;;;;;;5033577;28;20472;-64
2021/12/01 01:56:41;;;;;;;0.80;0.80;;;;;;;;;;5033592;28;20045;-64
2021/12/01 01:59:08;;;;;;;1.52;0.90;;;;;;;;;;5033628;28;20405;-64
2021/12/01 02:04:05;;;;;;;1.83;0.90;;;;;;;;;;5033518;28;20134;-64
2021/12/01 02:06:32;;;;;;;0.98;0.85;;;;;;;;;;5033476;28;20389;-64
2021/12/01 02:08:59;;;;;;;1.42;0.95;;;;;;;;;;5033358;28;20053;-64
2021/12/01 02:11:27;;;;;;;1.98;1.13;;;;;;;;;;5033415;28;20049;-64
2021/12/01 02:13:54;;;;;;;1.13;1.02;;;;;;;;;;5033170;28;20057;-64
2021/12/01 02:16:21;;;;;;;2.03;1.10;;;;;;;;;;5033465;28;20370;-64
2021/12/01 02:18:48;;;;;;;1.08;0.88;;;;;;;;;;5033278;28;20136;-64
2021/12/01 02:21:26;;;;;;;1.73;1.23;;;;;;;;;;5033317;28;20076;-64
2021/12/01 02:23:59;;;;;;;3.90;1.67;;;;;;;;;;5033264;28;20049;-64
2021/12/01 02:26:27;;;;;;;1.58;0.93;;;;;;;;;;5033027;28;20045;-64
2021/12/01 02:28:56;;;;;;;1.58;1.10;;;;;;;;;;5033009;28;20626;-64
2021/12/01 02:31:28;;;;;;;1.17;0.90;;;;;;;;;;5033236;28;20049;-64
2021/12/01 02:33:55;;;;;;;2.00;1.65;;;;;;;;;;5032902;28;20057;-64
2021/12/01 02:36:22;;;;;;;2.58;1.00;;;;;;;;;;5033091;28;20045;-65
2021/12/01 02:38:49;;;;;;;1.02;0.90;;;;;;;;;;5032728;28;20401;-65
2021/12/01 02:41:16;;;;;;;2.20;1.63;;;;;;;;;;5032895;28;20458;-65
2021/12/01 02:43:44;;;;;;;1.10;1.00;;;;;;;;;;5032580;28;20045;-64
2021/12/01 02:46:11;;;;;;;1.60;1.02;;;;;;;;;;5032555;28;20100;-65
2021/12/01 02:48:44;;;;;;;1.50;1.10;;;;;;;;;;5031352;28;20504;-64
2021/12/01 02:51:11;;;;;;;1.08;1.00;;;;;;;;;;5032722;28;20053;-65
2021/12/01 02:53:39;;;;;;;0.77;0.77;;;;;;;;;;5032717;28;20053;-64
2021/12/01 02:56:06;;;;;;;3.38;0.80;;;;;;;;;;5032646;28;20100;-65
2021/12/01 03:02:20;;;;;;;1.25;0.90;;;;;;;;;;5032483;28;20423;-64
2021/12/01 03:04:47;;;;;;;1.13;1.00;;;;;;;;;;5031040;28;20057;-64
2021/12/01 03:07:14;;;;;;;0.80;0.80;;;;;;;;;;5031226;28;20041;-64
2021/12/01 03:09:40;;;;;;;1.38;1.25;;;;;;;;;;5032194;28;20072;-64
2021/12/01 03:12:07;;;;;;;0.75;0.70;;;;;;;;;;5031093;28;20053;-64
2021/12/01 03:14:34;;;;;;;1.17;1.00;;;;;;;;;;5031424;28;20492;-64
2021/12/01 03:17:00;;;;;;;1.20;1.10;;;;;;;;;;5032284;28;20049;-64
2021/12/01 03:19:27;;;;;;;1.13;0.95;;;;;;;;;;5032169;28;20057;-64
2021/12/01 03:21:54;;;;;;;1.00;0.80;;;;;;;;;;5031878;28;20130;-64
2021/12/01 03:24:20;;;;;;;1.27;0.95;;;;;;;;;;5031821;28;20482;-64
2021/12/01 03:26:47;;;;;;;0.80;0.80;;;;;;;;;;5045405;22;20046;-68
2021/12/01 03:29:15;;;;;;;2.53;1.42;;;;;;;;;;5012430;28;20452;-68
2021/12/01 03:31:42;;;;;;;2.90;1.40;;;;;;;;;;5012204;28;20057;-69
2021/12/01 03:34:10;;;;;;;1.92;1.30;;;;;;;;;;5012084;28;20057;-69
2021/12/01 03:36:37;;;;;;;2.08;1.20;;;;;;;;;;5012182;28;20046;-68
2021/12/01 03:39:03;;;;;;;1.80;1.00;;;;;;;;;;5012092;28;20500;-69
2021/12/01 03:41:30;;;;;;;2.88;1.52;;;;;;;;;;5005770;28;20054;-68
2021/12/01 03:43:57;;;;;;;1.98;1.80;;;;;;;;;;4992209;28;20500;-68
2021/12/01 03:46:23;;;;;;;1.48;0.85;;;;;;;;;;4992500;28;20050;-68
2021/12/01 03:48:50;;;;;;;1.38;0.90;;;;;;;;;;4992239;28;20108;-69
2021/12/01 03:51:20;;;;;;;0.82;0.70;;;;;;;;;;4992523;28;20398;-68
2021/12/01 03:53:48;;;;;;;1.40;1.20;;;;;;;;;;4992110;28;20112;-68
2021/12/01 03:56:16;;;;;;;1.67;0.88;;;;;;;;;;4992359;28;20421;-68
2021/12/01 03:58:42;;;;;;;1.90;1.00;;;;;;;;;;4992226;28;20054;-68
2021/12/01 04:01:11;;;;;;;1.88;1.00;;;;;;;;;;4994817;28;20498;-69
2021/12/01 04:03:38;;;;;;;0.60;0.60;;;;;;;;;;5011360;28;20127;-68
2021/12/01 04:06:05;;;;;;;1.67;1.17;;;;;;;;;;5011798;28;20464;-69
2021/12/01 04:08:32;;;;;;;2.13;0.98;;;;;;;;;;5011791;28;20046;-69
2021/12/01 04:10:59;;;;;;;1.77;0.90;;;;;;;;;;5010651;28;20567;-69
2021/12/01 04:13:25;;;;;;;2.72;0.85;;;;;;;;;;4992202;28;20050;-69
2021/12/01 04:15:52;;;;;;;1.15;0.70;;;;;;;;;;4992195;28;20047;-68
2021/12/01 04:18:19;;;;;;;0.93;0.80;;;;;;;;;;4992212;28;20428;-68
2021/12/01 04:20:45;;;;;;;1.38;1.10;;;;;;;;;;4991976;28;20513;-68
2021/12/01 04:23:12;;;;;;;1.80;1.10;;;;;;;;;;4992347;28;20054;-68
2021/12/01 04:25:39;;;;;;;2.80;1.08;;;;;;;;;;4994611;28;20330;-68
2021/12/01 04:28:06;;;;;;;2.00;1.33;;;;;;;;;;4996089;28;20112;-68
2021/12/01 04:30:33;;;;;;;2.10;1.63;;;;;;;;;;4994647;28;20050;-68
2021/12/01 04:33:00;;;;;;;2.42;1.55;;;;;;;;;;4996067;28;20053;-68
2021/12/01 04:35:28;;;;;;;1.58;1.13;;;;;;;;;;4995874;28;20081;-68
2021/12/01 04:37:55;;;;;;;2.03;1.02;;;;;;;;;;4995766;28;20046;-68
2021/12/01 04:40:22;;;;;;;1.20;1.02;;;;;;;;;;4995656;28;20104;-68
2021/12/01 04:42:49;;;;;;;1.73;1.10;;;;;;;;;;4995527;28;20054;-68
2021/12/01 04:45:17;;;;;;;1.08;0.95;;;;;;;;;;4995547;28;20050;-68
2021/12/01 04:47:47;;;;;;;0.80;0.80;;;;;;;;;;4999275;28;20043;-68
2021/12/01 04:50:15;;;;;;;0.80;0.80;;;;;;;;;;4995651;28;20529;-68
2021/12/01 04:52:42;;;;;;;2.20;1.00;;;;;;;;;;4995447;28;20078;-68
2021/12/01 04:55:09;;;;;;;1.70;0.90;;;;;;;;;;4995562;28;20051;-68
2021/12/01 04:57:41;;;;;;;1.60;0.93;;;;;;;;;;4995380;28;20109;-69
2021/12/01 05:00:10;;;;;;;1.80;0.98;;;;;;;;;;4995342;28;20058;-68
2021/12/01 05:02:37;;;;;;;2.55;0.80;;;;;;;;;;4995232;28;20050;-69
2021/12/01 05:05:04;;;;;;;1.10;1.05;;;;;;;;;;4995582;28;20051;-68
2021/12/01 05:07:31;;;;;;;1.48;0.95;;;;;;;;;;4995117;28;20096;-68
2021/12/01 05:09:57;;;;;;;0.95;0.95;;;;;;;;;;4994924;28;20050;-68
2021/12/01 05:12:24;;;;;;;0.93;0.93;;;;;;;;;;4995361;28;20101;-68
2021/12/01 05:14:51;;;;;;;2.28;1.23;;;;;;;;;;4993831;28;20050;-68
2021/12/01 05:17:20;;;;;;;3.08;0.90;;;;;;;;;;4995214;28;20050;-65
2021/12/01 05:19:47;;;;;;;1.85;0.80;;;;;;;;;;4995042;28;20100;-66
2021/12/01 05:22:14;;;;;;;1.02;0.90;;;;;;;;;;4995004;28;20109;-66
2021/12/01 05:24:41;;;;;;;1.98;0.70;;;;;;;;;;4994360;28;20058;-68
2021/12/01 05:27:08;;;;;;;1.00;0.68;;;;;;;;;;4994697;28;20559;-68
2021/12/01 05:29:34;;;;;;;0.73;0.73;;;;;;;;;;4994534;28;20085;-68
2021/12/01 05:32:01;;;;;;;1.55;1.17;;;;;;;;;;4994456;28;20555;-68
2021/12/01 05:34:28;;;;;;;0.85;0.75;;;;;;;;;;4991773;28;20050;-68
2021/12/01 05:36:59;;;;;;;0.90;0.63;;;;;;;;;;4993584;28;20038;-68
2021/12/01 05:39:28;;;;;;;1.83;0.70;;;;;;;;;;4994445;28;20113;-68
2021/12/01 05:41:55;;;;;;;2.08;1.10;;;;;;;;;;4993404;28;20050;-68
2021/12/01 05:44:22;;;;;;;0.80;0.80;;;;;;;;;;4994493;28;20050;-68
2021/12/01 05:46:49;;;;;;;1.05;0.88;;;;;;;;;;4994753;28;20081;-68
2021/12/01 05:49:15;;;;;;;2.58;1.10;;;;;;;;;;4994573;28;20108;-68
2021/12/01 05:51:43;;;;;;;3.05;1.40;;;;;;;;;;4994347;28;20076;-68
2021/12/01 05:54:10;;;;;;;2.95;0.82;;;;;;;;;;4994308;28;20050;-68
2021/12/01 05:56:37;;;;;;;4.75;1.08;;;;;;;;;;4993164;28;20109;-68
2021/12/01 05:59:03;;;;;;;3.97;1.00;;;;;;;;;;4994482;28;20105;-68
2021/12/01 06:01:30;;;;;;;2.25;0.88;;;;;;;;;;4994561;28;20082;-68
2021/12/01 06:03:57;;;;;;;3.42;0.40;;;;;;;;;;4994236;28;20050;-68
2021/12/01 06:06:23;;;;;;;0.93;0.52;;;;;;;;;;4994144;28;20050;-68
2021/12/01 06:08:50;;;;;;;0.68;0.50;;;;;;;;;;4994227;28;20054;-68
2021/12/01 06:11:16;;;;;;;1.85;0.38;;;;;;;;;;4994186;28;20050;-68
2021/12/01 06:13:43;;;;;;;0.55;0.30;;;;;;;;;;4994479;28;20054;-68
2021/12/01 06:16:10;;;;;;;0.85;0.50;;;;;;;;;;4994530;28;20085;-68
2021/12/01 06:18:37;;;;;;;0.30;0.30;;;;;;;;;;4992568;28;20086;-68
2021/12/01 06:21:03;;;;;;;0.80;0.43;;;;;;;;;;4994093;28;20054;-68
2021/12/01 06:23:30;;;;;;;0.43;0.40;;;;;;;;;;4994212;28;20097;-68
2021/12/01 06:25:56;;;;;;;1.08;0.40;;;;;;;;;;4994005;28;20112;-66
2021/12/01 06:28:23;;;;;;;0.50;0.50;;;;;;;;;;4993805;28;20050;-66
2021/12/01 06:30:50;;;;;;;2.28;1.13;;;;;;;;;;4993770;28;20050;-66
2021/12/01 06:33:21;;;;;;;0.77;0.50;;;;;;;;;;4993611;28;20567;-66
2021/12/01 06:35:52;;;;;;;0.47;0.40;;;;;;;;;;4993493;28;20058;-67
2021/12/01 06:38:19;;;;;;;1.17;0.40;;;;;;;;;;4993675;28;20053;-66
2021/12/01 06:40:46;;;;;;;1.10;0.50;;;;;;;;;;4991359;28;20054;-66
2021/12/01 06:43:13;;;;;;;0.43;0.30;;;;;;;;;;4991525;28;20116;-66
2021/12/01 06:45:40;;;;;;;0.52;0.40;;;;;;;;;;4991181;28;20057;-66
2021/12/01 06:48:07;;;;;;;2.65;0.30;;;;;;;;;;4991237;28;20050;-66
2021/12/01 06:50:33;;;;;;;1.00;0.40;;;;;;;;;;4991334;28;20472;-66
2021/12/01 06:53:00;;;;;;;0.50;0.40;;;;;;;;;;4990607;28;20050;-66
2021/12/01 06:55:27;;;;;;;1.20;0.60;;;;;;;;;;4991415;28;20058;-67
2021/12/01 06:57:58;;;;;;;0.90;0.70;;;;;;;;;;4990931;28;20077;-66
2021/12/01 07:00:25;;;;;;;1.48;0.88;;;;;;;;;;4991232;28;20469;-66
2021/12/01 07:02:52;;;;;;;1.30;0.47;;;;;;;;;;4990914;28;20054;-66
2021/12/01 07:05:19;;;;;;;1.17;1.08;;;;;;;;;;4991468;28;20420;-66
2021/12/01 07:07:45;;;;;;;1.08;0.30;;;;;;;;;;4990426;28;20117;-66
2021/12/01 07:10:13;;;;;;;0.47;0.45;;;;;;;;;;5007928;28;20084;-66
2021/12/01 07:12:40;;;;;;;1.63;0.80;;;;;;;;;;5010492;28;20049;-66
2021/12/01 07:15:07;;;;;;;0.98;0.40;;;;;;;;;;5010895;28;20115;-66
2021/12/01 07:17:34;;;;;;;0.47;0.47;;;;;;;;;;5009462;28;20088;-66
2021/12/01 07:20:01;;;;;;;0.50;0.28;;;;;;;;;;5008588;28;20077;-66
2021/12/01 07:22:27;;;;;;;2.40;0.50;;;;;;;;;;4991045;28;20104;-66
2021/12/01 07:24:54;;;;;;;0.75;0.35;;;;;;;;;;4989815;28;20058;-66
2021/12/01 07:27:20;;;;;;;4.85;2.60;;;;;;;;;;4990763;28;20104;-66
2021/12/01 07:29:47;;;;;;;4.32;1.38;;;;;;;;;;4991975;28;20441;-66
2021/12/01 07:32:14;;;;;;;5.18;2.47;;;;;;;;;;4992719;28;20100;-68
2021/12/01 07:34:41;;;;;;;4.80;1.48;;;;;;;;;;4992533;28;20144;-67
2021/12/01 07:37:13;;;;;;;3.63;0.73;;;;;;;;;;4986214;28;20050;-67
2021/12/01 07:39:40;;;;;;;0.98;0.65;;;;;;;;;;4978337;28;20055;-66
2021/12/01 07:42:07;;;;;;;2.25;0.90;;;;;;;;;;4982349;28;20050;-65
2021/12/01 07:44:33;;;;;;;0.80;0.52;;;;;;;;;;4977566;28;20136;-65
2021/12/01 07:47:00;;;;;;;3.40;0.32;;;;;;;;;;4978085;28;20058;-65
2021/12/01 07:49:27;;;;;;;1.58;0.40;;;;;;;;;;4978835;28;20474;-65
2021/12/01 07:51:58;;;;;;;0.47;0.40;;;;;;;;;;4984451;28;20520;-65
2021/12/01 07:54:25;;;;;;;1.85;0.65;;;;;;;;;;4982918;28;20054;-65
2021/12/01 07:56:52;;;;;;;3.90;0.43;;;;;;;;;;4986210;28;20054;-66
2021/12/01 07:59:18;;;;;;;0.95;0.50;;;;;;;;;;4979056;28;20101;-65
2021/12/01 08:01:45;;;;;;;0.90;0.40;;;;;;;;;;4977335;28;20109;-66
2021/12/01 08:04:12;;;;;;;0.57;0.30;;;;;;;;;;4981062;28;20046;-67
2021/12/01 08:06:40;;;;;;;0.32;0.32;;;;;;;;;;4980881;28;20055;-65
2021/12/01 08:09:06;;;;;;;1.45;0.40;;;;;;;;;;4980682;28;20050;-65
2021/12/01 08:11:33;;;;;;;0.73;0.40;;;;;;;;;;4977995;28;20055;-68
2021/12/01 08:14:00;;;;;;;0.52;0.25;;;;;;;;;;4978343;28;20046;-69
2021/12/01 08:16:26;;;;;;;0.93;0.30;;;;;;;;;;4978113;28;20105;-67
2021/12/01 08:18:56;;;;;;;0.47;0.20;;;;;;;;;;4981649;28;20753;-67
2021/12/01 08:21:23;;;;;;;0.35;0.20;;;;;;;;;;4977735;28;20097;-69
2021/12/01 08:24:06;;;;;;;1.17;0.30;;;;;;;;;;4963362;28;20051;-65
2021/12/01 08:26:36;;;;;;;1.02;0.40;;;;;;;;;;4976814;28;20054;-65
2021/12/01 08:29:03;;;;;;;0.77;0.40;;;;;;;;;;4978656;28;20100;-66
2021/12/01 08:31:29;;;;;;;0.43;0.22;;;;;;;;;;4977725;28;20059;-65
2021/12/01 08:33:56;;;;;;;0.30;0.20;;;;;;;;;;4983925;28;20059;-66
2021/12/01 08:36:23;;;;;;;0.43;0.25;;;;;;;;;;4977194;28;20502;-65
2021/12/01 08:38:49;;;;;;;0.35;0.30;;;;;;;;;;4978414;28;20042;-66
2021/12/01 08:41:16;;;;;;;0.20;0.20;;;;;;;;;;4979649;28;20465;-65
2021/12/01 08:43:43;;;;;;;1.70;0.50;;;;;;;;;;4981221;28;20403;-65
2021/12/01 08:46:09;;;;;;;1.10;0.40;;;;;;;;;;4977045;28;20055;-65
2021/12/01 08:48:37;;;;;;;0.40;0.25;;;;;;;;;;4971265;28;20101;-65
2021/12/01 08:51:04;;;;;;;0.70;0.40;;;;;;;;;;4971603;28;20101;-65
2021/12/01 08:53:32;;;;;;;0.73;0.35;;;;;;;;;;4978711;28;20055;-65
2021/12/01 08:56:00;;;;;;;0.73;0.30;;;;;;;;;;4977046;28;20050;-65
2021/12/01 08:58:27;;;;;;;0.95;0.60;;;;;;;;;;4978508;28;20043;-65
2021/12/01 09:00:55;;;;;;;0.45;0.38;;;;;;;;;;4977838;28;20106;-65
2021/12/01 09:03:23;;;;;;;0.45;0.40;;;;;;;;;;4978205;28;20501;-65
2021/12/01 09:05:50;;;;;;;0.55;0.32;;;;;;;;;;4984386;28;20076;-65
2021/12/01 09:08:19;;;;;;;0.30;0.20;;;;;;;;;;4977249;28;20097;-65
2021/12/01 09:10:45;;;;;;;0.50;0.30;;;;;;;;;;4979202;28;20509;-65
2021/12/01 09:13:12;;;;;;;2.25;0.40;;;;;;;;;;4980015;28;20051;-65
2021/12/01 09:15:39;;;;;;;0.63;0.22;;;;;;;;;;4982153;28;20054;-65
2021/12/01 09:18:06;;;;;;;0.35;0.28;;;;;;;;;;4980477;28;20494;-65
2021/12/01 09:20:33;;;;;;;1.02;0.47;;;;;;;;;;4982130;28;20101;-65
2021/12/01 09:23:00;;;;;;;0.82;0.47;;;;;;;;;;4979960;28;20382;-65
2021/12/01 09:25:28;;;;;;;0.70;0.30;;;;;;;;;;4982139;28;20046;-65
2021/12/01 09:28:11;;;;;;;0.28;0.20;;;;;;;;;;5056672;23;20407;-63
2021/12/01 09:30:38;;;;;;;1.40;0.40;;;;;;;;;;5043743;28;20049;-63
2021/12/01 09:33:05;;;;;;;2.25;0.35;;;;;;;;;;5040960;28;20123;-63
2021/12/01 09:35:31;;;;;;;0.30;0.20;;;;;;;;;;5045656;28;20392;-64
2021/12/01 09:37:58;;;;;;;0.80;0.30;;;;;;;;;;5029767;28;20073;-64
2021/12/01 09:40:25;;;;;;;0.15;0.05;;;;;;;;;;5023491;28;20401;-64
2021/12/01 09:42:54;;;;;;;0.65;0.30;;;;;;;;;;5023164;28;20552;-63
2021/12/01 09:45:22;;;;;;;0.28;0.28;;;;;;;;;;5024884;28;20103;-71
2021/12/01 09:47:50;;;;;;;0.50;0.25;;;;;;;;;;5013497;28;20042;-67
2021/12/01 09:50:17;;;;;;;0.75;0.40;;;;;;;;;;5023962;28;20064;-69
2021/12/01 09:52:44;;;;;;;0.73;0.35;;;;;;;;;;5025272;28;20053;-69
2021/12/01 09:55:12;;;;;;;0.75;0.65;;;;;;;;;;5026342;28;20045;-68
2021/12/01 09:57:54;;;;;;;0.95;0.63;;;;;;;;;;5019828;28;20061;-68
2021/12/01 10:00:20;;;;;;;0.20;0.20;;;;;;;;;;5021374;28;20115;-69
2021/12/01 10:02:47;;;;;;;0.70;0.50;;;;;;;;;;5024040;28;20058;-69
2021/12/01 10:05:40;;;;;;;1.05;0.20;;;;;;;;;;5024048;28;20053;-68
2021/12/01 10:08:07;;;;;;;0.57;0.50;;;;;;;;;;5022155;28;20042;-70
2021/12/01 10:10:37;;;;;;;0.80;0.80;;;;;;;;;;5004471;28;20042;-67
2021/12/01 10:13:03;;;;;;;0.63;0.50;;;;;;;;;;5018104;28;20050;-68
2021/12/01 10:15:32;;;;;;;3.03;1.40;;;;;;;;;;5021960;28;20415;-66
2021/12/01 10:18:29;;;;;;;0.93;0.60;;;;;;;;;;5018478;28;20099;-66
2021/12/01 10:21:03;;;;;;;0.77;0.45;;;;;;;;;;4999051;28;20053;-66
2021/12/01 10:23:30;;;;;;;1.75;0.50;;;;;;;;;;5021853;28;20444;-67
2021/12/01 10:26:06;;;;;;;1.08;0.63;;;;;;;;;;5024465;28;20061;-66
2021/12/01 10:28:38;;;;;;;0.75;0.40;;;;;;;;;;5022929;28;20046;-67
2021/12/01 10:31:08;;;;;;;2.67;0.40;;;;;;;;;;5020623;28;20049;-66
2021/12/01 10:33:35;;;;;;;0.30;0.20;;;;;;;;;;5023331;28;20061;-66
2021/12/01 10:36:04;;;;;;;0.75;0.43;;;;;;;;;;5023237;28;20050;-67
2021/12/01 10:38:34;;;;;;;2.83;0.40;;;;;;;;;;5019476;28;20084;-64
2021/12/01 10:41:07;;;;;;;0.73;0.40;;;;;;;;;;5024051;28;20494;-65
2021/12/01 10:43:46;;;;;;;1.50;0.68;;;;;;;;;;5023992;28;20555;-64
2021/12/01 10:46:15;;;;;;;1.55;0.93;;;;;;;;;;5020860;28;20104;-65
2021/12/01 10:48:44;;;;;;;0.65;0.50;;;;;;;;;;5018170;28;20430;-64
2021/12/01 10:51:13;;;;;;;0.95;0.50;;;;;;;;;;5021496;28;20049;-64
2021/12/01 10:53:40;;;;;;;1.27;0.65;;;;;;;;;;5021574;28;20103;-64
2021/12/01 10:56:07;;;;;;;0.68;0.50;;;;;;;;;;5021894;28;20049;-65
2021/12/01 10:58:36;;;;;;;1.20;0.60;;;;;;;;;;5021099;28;20092;-65
2021/12/01 11:01:06;;;;;;;1.15;0.55;;;;;;;;;;5020350;28;20099;-64
2021/12/01 11:03:36;;;;;;;2.13;0.63;;;;;;;;;;5021180;28;20050;-64
2021/12/01 11:06:14;;;;;;;1.23;0.70;;;;;;;;;;5021125;28;20096;-64
2021/12/01 11:08:41;;;;;;;1.38;0.40;;;;;;;;;;5020493;28;20108;-65
2021/12/01 11:11:09;;;;;;;0.93;0.47;;;;;;;;;;5022247;28;20053;-64
2021/12/01 11:13:38;;;;;;;1.23;0.60;;;;;;;;;;5015613;28;20099;-64
2021/12/01 11:16:11;;;;;;;1.00;0.70;;;;;;;;;;5020095;28;20045;-65
2021/12/01 11:18:49;;;;;;;0.38;0.30;;;;;;;;;;5019666;28;20041;-64
2021/12/01 11:21:22;;;;;;;0.43;0.22;;;;;;;;;;5019710;28;20080;-64
2021/12/01 11:23:54;;;;;;;1.15;0.50;;;;;;;;;;5021736;28;20046;-64
2021/12/01 11:26:23;;;;;;;1.05;0.60;;;;;;;;;;5019280;28;20046;-64
2021/12/01 11:28:50;;;;;;;1.48;0.70;;;;;;;;;;5004116;28;20049;-66
2021/12/01 11:31:23;;;;;;;1.05;0.50;;;;;;;;;;5021694;28;20144;-69
2021/12/01 11:33:55;;;;;;;1.73;0.63;;;;;;;;;;5021172;28;20486;-68
2021/12/01 11:36:25;;;;;;;2.75;0.70;;;;;;;;;;5017589;28;20483;-69
2021/12/01 11:39:05;;;;;;;1.50;0.75;;;;;;;;;;5019876;28;20432;-68
2021/12/01 11:41:33;;;;;;;1.92;0.47;;;;;;;;;;5022195;28;20049;-63
2021/12/01 11:44:02;;;;;;;1.75;0.98;;;;;;;;;;5021827;28;20046;-68
2021/12/01 11:46:30;;;;;;;0.50;0.30;;;;;;;;;;5018808;28;20049;-68
2021/12/01 11:48:58;;;;;;;1.13;0.45;;;;;;;;;;5023380;28;20103;-69
2021/12/01 11:51:38;;;;;;;0.70;0.52;;;;;;;;;;5019567;28;20050;-70
2021/12/01 11:54:11;;;;;;;1.65;1.15;;;;;;;;;;5021120;28;20076;-68
2021/12/01 11:56:39;;;;;;;1.95;1.35;;;;;;;;;;4997012;28;20091;-68
2021/12/01 11:59:20;;;;;;;1.27;0.90;;;;;;;;;;5020842;28;20462;-67
2021/12/01 12:01:55;;;;;;;2.22;1.70;;;;;;;;;;5013598;28;20042;-69
2021/12/01 12:04:30;;;;;;;1.33;1.00;;;;;;;;;;5016905;28;20053;-66
2021/12/01 12:07:06;;;;;;;2.28;1.48;;;;;;;;;;5018442;28;20046;-67
2021/12/01 12:10:17;;;;;;;4.35;2.70;;;;;;;;;;5021777;28;20048;-66
2021/12/01 12:13:04;;;;;;;7.15;3.75;;;;;;;;;;5018756;28;20180;-66
2021/12/01 12:15:34;;;;;;;9.63;3.30;;;;;;;;;;5020510;28;20075;-67
2021/12/01 12:18:04;;;;;;;7.70;4.10;;;;;;;;;;5023335;28;20038;-68
2021/12/01 12:20:38;;;;;;;0.90;0.80;;;;;;;;;;5015817;28;20058;-69
2021/12/01 12:23:07;;;;;;;1.10;0.75;;;;;;;;;;5018438;28;20127;-65
2021/12/01 12:25:41;;;;;;;1.15;0.63;;;;;;;;;;5025726;28;20128;-68
2021/12/01 12:28:38;;;;;;;2.65;0.80;;;;;;;;;;5022000;28;20049;-68
2021/12/01 12:31:18;;;;;;;0.68;0.40;;;;;;;;;;5019223;28;20077;-70
2021/12/01 12:34:07;;;;;;;0.60;0.30;;;;;;;;;;5020063;28;20061;-67
2021/12/01 12:36:43;;;;;;;0.30;0.20;;;;;;;;;;5021403;28;20050;-67
2021/12/01 12:39:18;;;;;;;1.63;0.85;;;;;;;;;;5021597;28;20443;-67
2021/12/01 12:42:08;;;;;;;0.70;0.40;;;;;;;;;;5023699;28;20050;-68
2021/12/01 12:44:43;;;;;;;1.38;1.08;;;;;;;;;;5015539;28;20082;-67
2021/12/01 12:47:38;;;;;;;1.02;0.45;;;;;;;;;;5028949;28;20061;-67
2021/12/01 12:50:11;;;;;;;1.20;0.57;;;;;;;;;;5017413;28;20467;-66
2021/12/01 12:52:39;;;;;;;1.52;0.50;;;;;;;;;;5022774;28;20061;-66
2021/12/01 12:55:21;;;;;;;1.95;0.40;;;;;;;;;;5026881;28;20041;-63
2021/12/01 12:57:58;;;;;;;0.68;0.55;;;;;;;;;;5020575;28;20107;-64
2021/12/01 13:00:24;;;;;;;1.55;0.70;;;;;;;;;;5024668;28;20108;-63
2021/12/01 13:02:53;;;;;;;0.70;0.55;;;;;;;;;;5023186;28;20050;-63
2021/12/01 13:05:36;;;;;;;5.28;3.33;;;;;;;;;;5019917;28;20107;-63
2021/12/01 13:08:29;;;;;;;0.50;0.40;;;;;;;;;;5023467;28;20577;-64
2021/12/01 13:11:02;;;;;;;0.47;0.40;;;;;;;;;;5023594;28;20922;-63
2021/12/01 13:13:34;;;;;;;;;;;;;;;;;;5022378;28;20046;-64
2021/12/01 13:16:01;;;;;;;0.50;0.50;;;;;;;;;;5019282;28;19925;-64
2021/12/01 13:18:31;;;;;;;0.75;0.60;;;;;;;;;;5024896;28;20129;-63
2021/12/01 13:21:00;;;;;;;0.82;0.40;;;;;;;;;;5023874;28;20569;-65
2021/12/01 13:23:36;;;;;;;1.58;0.93;;;;;;;;;;5022414;28;20046;-68
2021/12/01 13:26:09;;;;;;;0.88;0.75;;;;;;;;;;5024113;28;20119;-68
2021/12/01 13:28:41;;;;;;;0.87;0.60;;;;;;;;;;5017043;28;20683;-69
2021/12/01 13:31:20;;;;;;;1.65;0.90;;;;;;;;;;5017907;28;20050;-68
2021/12/01 13:33:59;;;;;;;0.73;0.60;;;;;;;;;;5016177;28;20088;-69
2021/12/01 13:36:28;;;;;;;1.10;0.68;;;;;;;;;;5023512;28;20053;-70
2021/12/01 13:38:56;;;;;;;1.10;0.68;;;;;;;;;;5022971;28;20048;-74
2021/12/01 13:41:27;;;;;;;1.00;0.60;;;;;;;;;;5023692;28;20096;-68
2021/12/01 13:44:01;;;;;;;0.40;0.40;;;;;;;;;;5024586;28;20111;-69
2021/12/01 13:46:28;;;;;;;1.05;0.50;;;;;;;;;;5021003;28;20124;-69
2021/12/01 13:48:55;;;;;;;2.03;1.10;;;;;;;;;;5021723;28;20100;-68
2021/12/01 13:51:23;;;;;;;1.85;0.65;;;;;;;;;;5023271;28;20104;-71
2021/12/01 13:53:50;;;;;;;0.77;0.50;;;;;;;;;;5024773;28;20103;-63
2021/12/01 13:56:19;;;;;;;2.78;0.47;;;;;;;;;;5022305;28;20045;-63
2021/12/01 13:58:47;;;;;;;0.50;0.40;;;;;;;;;;5024254;28;20049;-63
2021/12/01 14:01:16;;;;;;;1.50;0.80;;;;;;;;;;5024644;28;20057;-65
2021/12/01 14:04:10;;;;;;;5.25;2.00;;;;;;;;;;5021993;28;20144;-69
2021/12/01 14:06:38;;;;;;;;;;;;;;;;;;5010597;28;20582;-69
2021/12/01 14:09:09;;;;;;;7.50;3.47;;;;;;;;;;5018500;28;19951;-68
2021/12/01 14:11:43;;;;;;;2.03;1.20;;;;;;;;;;5023522;28;20056;-68
2021/12/01 14:14:23;;;;;;;1.30;0.80;;;;;;;;;;5022042;28;20049;-69
2021/12/01 14:16:52;;;;;;;0.80;0.80;;;;;;;;;;5020494;28;20456;-67
2021/12/01 14:19:19;;;;;;;0.60;0.50;;;;;;;;;;4988921;28;20182;-67
2021/12/01 14:21:47;;;;;;;0.88;0.80;;;;;;;;;;5024649;28;20049;-67
2021/12/01 14:24:16;;;;;;;0.80;0.52;;;;;;;;;;5019814;28;20456;-68
2021/12/01 14:26:51;;;;;;;0.82;0.60;;;;;;;;;;5022310;28;20378;-70
2021/12/01 14:29:19;;;;;;;2.00;1.23;;;;;;;;;;5019645;28;20570;-70
2021/12/01 14:32:04;;;;;;;1.48;1.35;;;;;;;;;;5022847;28;20049;-69
2021/12/01 14:34:32;;;;;;;0.70;0.70;;;;;;;;;;5015536;28;20084;-69
2021/12/01 14:37:01;;;;;;;1.20;1.10;;;;;;;;;;5024089;28;20054;-70
2021/12/01 14:39:27;;;;;;;2.25;0.60;;;;;;;;;;5021130;28;20050;-68
2021/12/01 14:41:55;;;;;;;1.25;0.45;;;;;;;;;;5022457;28;20096;-68
2021/12/01 14:44:25;;;;;;;1.85;1.20;;;;;;;;;;5021358;28;20183;-67
2021/12/01 14:47:09;;;;;;;2.28;1.40;;;;;;;;;;5018132;28;20049;-69
2021/12/01 14:49:43;;;;;;;3.00;1.40;;;;;;;;;;5021458;28;20099;-70
2021/12/01 14:52:22;;;;;;;1.75;0.85;;;;;;;;;;5020243;28;20124;-69
2021/12/01 14:54:58;;;;;;;1.95;0.90;;;;;;;;;;5005906;28;20091;-68
2021/12/01 14:57:27;;;;;;;1.92;1.38;;;;;;;;;;5020835;28;20053;-68
2021/12/01 14:59:56;;;;;;;2.55;1.08;;;;;;;;;;5019669;28;20417;-68
2021/12/01 15:02:30;;;;;;;1.30;0.70;;;;;;;;;;5023353;28;20111;-68
2021/12/01 15:05:17;;;;;;;1.42;0.73;;;;;;;;;;5019208;28;20519;-70
2021/12/01 15:07:44;;;;;;;0.90;0.65;;;;;;;;;;5019550;28;20045;-70